sensor_id;sensor_type;location;lat;lon;timestamp;pressure;altitude;pressure_sealevel;temperature;humidity
64698;BME280;51124;53.394;-6.294;2023-02-15T00:00:29;101243.33;;;18.40;8.57
64698;BME280;51124;53.394;-6.294;2023-02-15T00:02:56;101245.41;;;18.22;8.61
64698;BME280;51124;53.394;-6.294;2023-02-15T00:05:24;101247.18;;;18.65;8.50
64698;BME280;51124;53.394;-6.294;2023-02-15T00:07:51;101246.23;;;18.86;8.49
64698;BME280;51124;53.394;-6.294;2023-02-15T00:10:18;101246.21;;;18.65;8.52
64698;BME280;51124;53.394;-6.294;2023-02-15T00:12:45;101234.40;;;18.38;8.44
64698;BME280;51124;53.394;-6.294;2023-02-15T00:15:13;101243.62;;;18.69;8.43
64698;BME280;51124;53.394;-6.294;2023-02-15T00:17:40;101232.16;;;18.41;8.38
64698;BME280;51124;53.394;-6.294;2023-02-15T00:20:08;101219.55;;;18.69;8.33
64698;BME280;51124;53.394;-6.294;2023-02-15T00:22:35;101225.24;;;18.59;8.39
64698;BME280;51124;53.394;-6.294;2023-02-15T00:25:03;101205.31;;;18.20;8.36
64698;BME280;51124;53.394;-6.294;2023-02-15T00:27:30;101202.90;;;18.98;8.30
64698;BME280;51124;53.394;-6.294;2023-02-15T00:29:58;101198.18;;;19.27;8.30
64698;BME280;51124;53.394;-6.294;2023-02-15T00:32:25;101188.13;;;18.89;8.35
64698;BME280;51124;53.394;-6.294;2023-02-15T00:34:52;101175.83;;;19.09;8.38
64698;BME280;51124;53.394;-6.294;2023-02-15T00:37:19;101174.92;;;19.37;8.34
64698;BME280;51124;53.394;-6.294;2023-02-15T00:39:47;101166.26;;;18.06;8.48
64698;BME280;51124;53.394;-6.294;2023-02-15T00:42:14;101152.53;;;18.91;8.46
64698;BME280;51124;53.394;-6.294;2023-02-15T00:44:41;101171.30;;;18.71;8.30
64698;BME280;51124;53.394;-6.294;2023-02-15T00:47:09;101162.83;;;18.91;8.40
64698;BME280;51124;53.394;-6.294;2023-02-15T00:49:36;101157.79;;;18.53;8.42
64698;BME280;51124;53.394;-6.294;2023-02-15T00:52:03;101149.51;;;18.69;8.36
64698;BME280;51124;53.394;-6.294;2023-02-15T00:54:31;101162.59;;;18.82;8.33
64698;BME280;51124;53.394;-6.294;2023-02-15T00:56:58;101141.37;;;18.59;8.40
64698;BME280;51124;53.394;-6.294;2023-02-15T00:59:25;101145.79;;;18.23;8.41
64698;BME280;51124;53.394;-6.294;2023-02-15T01:01:53;101129.43;;;19.11;8.38
64698;BME280;51124;53.394;-6.294;2023-02-15T01:04:20;101129.52;;;18.60;8.28
64698;BME280;51124;53.394;-6.294;2023-02-15T01:06:47;101114.59;;;18.37;8.32
64698;BME280;51124;53.394;-6.294;2023-02-15T01:09:15;101130.32;;;18.71;8.21
64698;BME280;51124;53.394;-6.294;2023-02-15T01:11:42;101122.28;;;18.77;8.14
64698;BME280;51124;53.394;-6.294;2023-02-15T01:14:09;101119.00;;;21.30;8.42
64698;BME280;51124;53.394;-6.294;2023-02-15T01:16:37;101115.23;;;20.86;8.84
64698;BME280;51124;53.394;-6.294;2023-02-15T01:19:04;101110.87;;;19.97;9.15
64698;BME280;51124;53.394;-6.294;2023-02-15T01:21:32;101107.66;;;20.91;9.08
64698;BME280;51124;53.394;-6.294;2023-02-15T01:24:00;101099.21;;;21.80;9.54
64698;BME280;51124;53.394;-6.294;2023-02-15T01:26:28;101097.75;;;21.56;9.97
64698;BME280;51124;53.394;-6.294;2023-02-15T01:28:56;101098.12;;;21.17;10.26
64698;BME280;51124;53.394;-6.294;2023-02-15T01:31:23;101079.87;;;21.16;10.39
64698;BME280;51124;53.394;-6.294;2023-02-15T01:33:51;101077.65;;;21.58;10.45
64698;BME280;51124;53.394;-6.294;2023-02-15T01:36:19;101077.86;;;21.19;10.72
64698;BME280;51124;53.394;-6.294;2023-02-15T01:38:47;101069.70;;;20.53;10.69
64698;BME280;51124;53.394;-6.294;2023-02-15T01:41:15;101060.77;;;21.09;10.81
64698;BME280;51124;53.394;-6.294;2023-02-15T01:43:45;101060.51;;;20.95;10.87
64698;BME280;51124;53.394;-6.294;2023-02-15T01:46:14;101046.98;;;21.04;10.95
64698;BME280;51124;53.394;-6.294;2023-02-15T01:48:46;101045.91;;;20.86;10.86
64698;BME280;51124;53.394;-6.294;2023-02-15T01:51:15;101040.95;;;20.66;10.80
64698;BME280;51124;53.394;-6.294;2023-02-15T01:53:47;101032.89;;;20.34;10.90
64698;BME280;51124;53.394;-6.294;2023-02-15T01:56:17;101025.64;;;20.71;10.86
64698;BME280;51124;53.394;-6.294;2023-02-15T01:58:47;101024.65;;;20.15;10.92
64698;BME280;51124;53.394;-6.294;2023-02-15T02:01:16;101018.76;;;20.83;10.86
64698;BME280;51124;53.394;-6.294;2023-02-15T02:03:51;101018.39;;;20.96;10.96
64698;BME280;51124;53.394;-6.294;2023-02-15T02:06:10;101015.65;;;20.40;11.05
64698;BME280;51124;53.394;-6.294;2023-02-15T02:08:38;101014.18;;;20.77;10.94
64698;BME280;51124;53.394;-6.294;2023-02-15T02:11:11;101004.54;;;20.12;11.01
64698;BME280;51124;53.394;-6.294;2023-02-15T02:13:40;100994.00;;;18.95;10.79
64698;BME280;51124;53.394;-6.294;2023-02-15T02:16:12;100995.23;;;18.65;10.28
64698;BME280;51124;53.394;-6.294;2023-02-15T02:18:51;100986.75;;;18.25;9.89
64698;BME280;51124;53.394;-6.294;2023-02-15T02:23:44;100976.83;;;19.02;9.41
64698;BME280;51124;53.394;-6.294;2023-02-15T02:26:24;100972.40;;;18.11;9.24
64698;BME280;51124;53.394;-6.294;2023-02-15T02:28:54;100967.54;;;17.42;9.04
64698;BME280;51124;53.394;-6.294;2023-02-15T02:31:22;100965.14;;;18.68;8.97
64698;BME280;51124;53.394;-6.294;2023-02-15T02:33:47;100951.42;;;17.97;8.84
64698;BME280;51124;53.394;-6.294;2023-02-15T02:36:15;100954.16;;;18.03;8.74
64698;BME280;51124;53.394;-6.294;2023-02-15T02:38:43;100957.33;;;18.41;8.76
64698;BME280;51124;53.394;-6.294;2023-02-15T02:41:10;100949.75;;;18.34;8.71
64698;BME280;51124;53.394;-6.294;2023-02-15T02:43:35;100943.96;;;18.55;8.51
64698;BME280;51124;53.394;-6.294;2023-02-15T02:46:10;100950.48;;;18.65;8.55
64698;BME280;51124;53.394;-6.294;2023-02-15T02:48:40;100954.48;;;18.08;8.51
64698;BME280;51124;53.394;-6.294;2023-02-15T02:51:07;100945.74;;;18.52;8.44
64698;BME280;51124;53.394;-6.294;2023-02-15T02:53:35;100938.86;;;18.45;8.52
64698;BME280;51124;53.394;-6.294;2023-02-15T02:56:09;100932.63;;;18.22;8.41
64698;BME280;51124;53.394;-6.294;2023-02-15T02:58:32;100930.22;;;18.59;8.38
64698;BME280;51124;53.394;-6.294;2023-02-15T03:01:05;100916.24;;;18.56;8.35
64698;BME280;51124;53.394;-6.294;2023-02-15T03:03:36;100919.85;;;18.50;8.29
64698;BME280;51124;53.394;-6.294;2023-02-15T03:06:07;100913.35;;;17.47;8.42
64698;BME280;51124;53.394;-6.294;2023-02-15T03:08:40;100908.31;;;17.79;8.26
64698;BME280;51124;53.394;-6.294;2023-02-15T03:11:09;100896.90;;;18.13;8.23
64698;BME280;51124;53.394;-6.294;2023-02-15T03:13:38;100895.06;;;18.20;8.28
64698;BME280;51124;53.394;-6.294;2023-02-15T03:16:07;100891.31;;;17.69;8.32
64698;BME280;51124;53.394;-6.294;2023-02-15T03:18:38;100878.40;;;18.28;8.30
64698;BME280;51124;53.394;-6.294;2023-02-15T03:21:07;100868.42;;;18.35;8.18
64698;BME280;51124;53.394;-6.294;2023-02-15T03:23:37;100865.06;;;17.83;8.32
64698;BME280;51124;53.394;-6.294;2023-02-15T03:26:07;100855.51;;;17.87;8.36
64698;BME280;51124;53.394;-6.294;2023-02-15T03:28:39;100854.21;;;17.83;8.27
64698;BME280;51124;53.394;-6.294;2023-02-15T03:31:10;100858.42;;;18.48;8.23
64698;BME280;51124;53.394;-6.294;2023-02-15T03:33:44;100853.37;;;17.88;8.32
64698;BME280;51124;53.394;-6.294;2023-02-15T03:36:08;100840.30;;;18.78;8.24
64698;BME280;51124;53.394;-6.294;2023-02-15T03:38:40;100830.88;;;18.61;8.22
64698;BME280;51124;53.394;-6.294;2023-02-15T03:41:10;100827.17;;;18.12;8.25
64698;BME280;51124;53.394;-6.294;2023-02-15T03:43:44;100819.23;;;18.50;8.25
64698;BME280;51124;53.394;-6.294;2023-02-15T03:46:10;100820.88;;;18.23;8.19
64698;BME280;51124;53.394;-6.294;2023-02-15T03:48:41;100809.77;;;17.76;8.35
64698;BME280;51124;53.394;-6.294;2023-02-15T03:51:12;100803.96;;;17.90;8.35
64698;BME280;51124;53.394;-6.294;2023-02-15T03:53:42;100801.37;;;18.04;8.24
64698;BME280;51124;53.394;-6.294;2023-02-15T03:56:10;100803.92;;;18.59;8.19
64698;BME280;51124;53.394;-6.294;2023-02-15T03:58:37;100813.64;;;18.03;8.27
64698;BME280;51124;53.394;-6.294;2023-02-15T04:01:10;100827.58;;;18.54;8.28
64698;BME280;51124;53.394;-6.294;2023-02-15T04:03:33;100824.65;;;21.41;8.28
64698;BME280;51124;53.394;-6.294;2023-02-15T04:06:04;100822.65;;;21.03;8.73
64698;BME280;51124;53.394;-6.294;2023-02-15T04:08:32;100819.70;;;18.69;9.10
64698;BME280;51124;53.394;-6.294;2023-02-15T04:10:59;100824.31;;;21.09;8.87
64698;BME280;51124;53.394;-6.294;2023-02-15T04:13:32;100828.83;;;21.59;9.35
64698;BME280;51124;53.394;-6.294;2023-02-15T04:16:00;100822.96;;;21.62;9.74
64698;BME280;51124;53.394;-6.294;2023-02-15T04:18:27;100822.43;;;21.43;10.17
64698;BME280;51124;53.394;-6.294;2023-02-15T04:20:55;100822.26;;;21.20;10.31
64698;BME280;51124;53.394;-6.294;2023-02-15T04:23:23;100818.92;;;20.97;10.45
64698;BME280;51124;53.394;-6.294;2023-02-15T04:25:51;100807.74;;;20.33;10.53
64698;BME280;51124;53.394;-6.294;2023-02-15T04:28:18;100804.99;;;20.50;10.63
64698;BME280;51124;53.394;-6.294;2023-02-15T04:30:46;100812.91;;;20.40;10.56
64698;BME280;51124;53.394;-6.294;2023-02-15T04:33:14;100819.86;;;20.87;10.61
64698;BME280;51124;53.394;-6.294;2023-02-15T04:35:43;100814.64;;;20.39;10.73
64698;BME280;51124;53.394;-6.294;2023-02-15T04:38:10;100804.67;;;20.32;10.74
64698;BME280;51124;53.394;-6.294;2023-02-15T04:40:38;100813.81;;;20.95;10.67
64698;BME280;51124;53.394;-6.294;2023-02-15T04:43:06;100803.41;;;20.04;10.82
64698;BME280;51124;53.394;-6.294;2023-02-15T04:45:33;100798.95;;;20.10;10.79
64698;BME280;51124;53.394;-6.294;2023-02-15T04:48:01;100801.64;;;20.35;10.82
64698;BME280;51124;53.394;-6.294;2023-02-15T04:50:29;100798.57;;;20.34;10.71
64698;BME280;51124;53.394;-6.294;2023-02-15T04:52:57;100792.56;;;20.46;10.81
64698;BME280;51124;53.394;-6.294;2023-02-15T04:55:25;100795.37;;;20.49;10.93
64698;BME280;51124;53.394;-6.294;2023-02-15T04:57:52;100790.97;;;20.95;10.86
64698;BME280;51124;53.394;-6.294;2023-02-15T05:00:20;100781.36;;;20.41;10.88
64698;BME280;51124;53.394;-6.294;2023-02-15T05:02:48;100762.48;;;18.90;10.74
64698;BME280;51124;53.394;-6.294;2023-02-15T05:05:15;100761.57;;;16.83;10.37
64698;BME280;51124;53.394;-6.294;2023-02-15T05:07:43;100756.49;;;17.95;9.98
64698;BME280;51124;53.394;-6.294;2023-02-15T05:10:10;100804.97;;;18.67;9.53
64698;BME280;51124;53.394;-6.294;2023-02-15T05:12:38;100876.56;;;17.97;9.28
64698;BME280;51124;53.394;-6.294;2023-02-15T05:15:05;100894.81;;;18.21;9.11
64698;BME280;51124;53.394;-6.294;2023-02-15T05:17:33;100888.80;;;17.95;8.99
64698;BME280;51124;53.394;-6.294;2023-02-15T05:20:00;100894.50;;;17.64;8.93
64698;BME280;51124;53.394;-6.294;2023-02-15T05:22:27;100890.44;;;18.15;8.90
64698;BME280;51124;53.394;-6.294;2023-02-15T05:24:55;100898.70;;;17.72;8.81
64698;BME280;51124;53.394;-6.294;2023-02-15T05:27:22;100904.88;;;17.83;8.59
64698;BME280;51124;53.394;-6.294;2023-02-15T05:29:50;100907.76;;;18.41;8.62
64698;BME280;51124;53.394;-6.294;2023-02-15T05:32:17;100905.63;;;17.88;8.48
64698;BME280;51124;53.394;-6.294;2023-02-15T05:34:44;100915.91;;;18.16;8.48
64698;BME280;51124;53.394;-6.294;2023-02-15T05:37:11;100928.47;;;17.75;8.43
64698;BME280;51124;53.394;-6.294;2023-02-15T05:39:39;100926.67;;;17.72;8.38
64698;BME280;51124;53.394;-6.294;2023-02-15T05:42:06;100921.30;;;18.47;8.27
64698;BME280;51124;53.394;-6.294;2023-02-15T05:44:33;100918.14;;;18.27;8.37
64698;BME280;51124;53.394;-6.294;2023-02-15T05:47:01;100913.97;;;17.89;8.36
64698;BME280;51124;53.394;-6.294;2023-02-15T05:49:28;100907.72;;;18.11;8.25
64698;BME280;51124;53.394;-6.294;2023-02-15T05:51:55;100915.31;;;17.69;8.28
64698;BME280;51124;53.394;-6.294;2023-02-15T05:54:22;100922.07;;;18.11;8.20
64698;BME280;51124;53.394;-6.294;2023-02-15T05:56:50;100917.12;;;17.85;8.17
64698;BME280;51124;53.394;-6.294;2023-02-15T05:59:17;100914.48;;;18.11;8.20
64698;BME280;51124;53.394;-6.294;2023-02-15T06:01:45;100920.43;;;17.86;8.23
64698;BME280;51124;53.394;-6.294;2023-02-15T06:04:12;100934.35;;;18.35;8.21
64698;BME280;51124;53.394;-6.294;2023-02-15T06:06:40;100939.43;;;17.75;8.14
64698;BME280;51124;53.394;-6.294;2023-02-15T06:09:07;100937.27;;;18.19;8.24
64698;BME280;51124;53.394;-6.294;2023-02-15T06:11:34;100937.79;;;18.51;8.28
64698;BME280;51124;53.394;-6.294;2023-02-15T06:14:01;100945.38;;;17.76;8.32
64698;BME280;51124;53.394;-6.294;2023-02-15T06:16:29;100952.46;;;18.94;8.24
64698;BME280;51124;53.394;-6.294;2023-02-15T06:18:56;100959.25;;;18.54;8.30
64698;BME280;51124;53.394;-6.294;2023-02-15T06:21:24;100958.19;;;18.22;8.20
64698;BME280;51124;53.394;-6.294;2023-02-15T06:23:51;100961.02;;;17.73;8.26
64698;BME280;51124;53.394;-6.294;2023-02-15T06:26:18;100960.29;;;18.58;8.29
64698;BME280;51124;53.394;-6.294;2023-02-15T06:28:45;100961.74;;;17.43;8.42
64698;BME280;51124;53.394;-6.294;2023-02-15T06:31:13;100963.76;;;17.49;8.43
64698;BME280;51124;53.394;-6.294;2023-02-15T06:33:40;100957.86;;;17.84;8.49
64698;BME280;51124;53.394;-6.294;2023-02-15T06:36:07;100968.10;;;17.74;8.35
64698;BME280;51124;53.394;-6.294;2023-02-15T06:38:35;100977.18;;;18.28;8.38
64698;BME280;51124;53.394;-6.294;2023-02-15T06:41:02;100970.56;;;18.24;8.38
64698;BME280;51124;53.394;-6.294;2023-02-15T06:43:29;100971.56;;;17.49;8.32
64698;BME280;51124;53.394;-6.294;2023-02-15T06:45:56;100953.19;;;18.38;8.31
64698;BME280;51124;53.394;-6.294;2023-02-15T06:48:24;100962.55;;;17.83;8.30
64698;BME280;51124;53.394;-6.294;2023-02-15T06:50:51;100972.88;;;17.61;8.33
64698;BME280;51124;53.394;-6.294;2023-02-15T06:53:18;100978.99;;;20.42;8.31
64698;BME280;51124;53.394;-6.294;2023-02-15T06:55:46;100987.02;;;19.99;8.76
64698;BME280;51124;53.394;-6.294;2023-02-15T06:58:13;100987.08;;;18.66;9.14
64698;BME280;51124;53.394;-6.294;2023-02-15T07:00:41;100988.40;;;17.37;9.20
64698;BME280;51124;53.394;-6.294;2023-02-15T07:03:09;100991.10;;;21.70;9.41
64698;BME280;51124;53.394;-6.294;2023-02-15T07:05:36;100991.82;;;20.61;9.95
64698;BME280;51124;53.394;-6.294;2023-02-15T07:08:04;100992.68;;;20.71;10.25
64698;BME280;51124;53.394;-6.294;2023-02-15T07:10:32;100990.00;;;20.13;10.54
64698;BME280;51124;53.394;-6.294;2023-02-15T07:13:00;100989.25;;;19.80;10.60
64698;BME280;51124;53.394;-6.294;2023-02-15T07:15:28;100987.95;;;20.35;10.78
64698;BME280;51124;53.394;-6.294;2023-02-15T07:17:56;100991.47;;;19.85;10.96
64698;BME280;51124;53.394;-6.294;2023-02-15T07:20:25;100987.75;;;20.00;10.99
64698;BME280;51124;53.394;-6.294;2023-02-15T07:22:53;100989.38;;;19.97;10.94
64698;BME280;51124;53.394;-6.294;2023-02-15T07:25:20;100983.42;;;19.91;11.02
64698;BME280;51124;53.394;-6.294;2023-02-15T07:27:48;100979.61;;;20.39;10.96
64698;BME280;51124;53.394;-6.294;2023-02-15T07:30:17;100974.29;;;19.43;11.04
64698;BME280;51124;53.394;-6.294;2023-02-15T07:32:45;100960.47;;;20.13;11.06
64698;BME280;51124;53.394;-6.294;2023-02-15T07:35:13;100954.97;;;20.34;11.05
64698;BME280;51124;53.394;-6.294;2023-02-15T07:37:40;100946.99;;;19.13;11.35
64698;BME280;51124;53.394;-6.294;2023-02-15T07:40:09;100939.11;;;19.98;11.17
64698;BME280;51124;53.394;-6.294;2023-02-15T07:42:37;100936.72;;;20.01;11.04
64698;BME280;51124;53.394;-6.294;2023-02-15T07:45:05;100927.48;;;21.27;10.89
64698;BME280;51124;53.394;-6.294;2023-02-15T07:47:33;100935.60;;;21.12;10.80
64698;BME280;51124;53.394;-6.294;2023-02-15T07:50:01;100928.26;;;20.58;10.90
64698;BME280;51124;53.394;-6.294;2023-02-15T07:52:28;100930.28;;;19.10;10.87
64698;BME280;51124;53.394;-6.294;2023-02-15T07:54:55;100921.84;;;18.37;10.35
64698;BME280;51124;53.394;-6.294;2023-02-15T07:57:23;100917.63;;;18.80;9.80
64698;BME280;51124;53.394;-6.294;2023-02-15T07:59:50;100911.56;;;18.84;9.60
64698;BME280;51124;53.394;-6.294;2023-02-15T08:02:17;100913.73;;;19.23;9.17
64698;BME280;51124;53.394;-6.294;2023-02-15T08:04:45;100920.41;;;20.10;9.05
64698;BME280;51124;53.394;-6.294;2023-02-15T08:07:12;100922.45;;;19.37;9.06
64698;BME280;51124;53.394;-6.294;2023-02-15T08:09:39;100928.97;;;19.97;8.89
64698;BME280;51124;53.394;-6.294;2023-02-15T08:12:08;100938.66;;;18.70;9.25
64698;BME280;51124;53.394;-6.294;2023-02-15T08:14:35;100940.37;;;18.95;9.24
64698;BME280;51124;53.394;-6.294;2023-02-15T08:17:02;100934.73;;;17.92;9.51
64698;BME280;51124;53.394;-6.294;2023-02-15T08:19:31;100941.16;;;18.82;9.20
64698;BME280;51124;53.394;-6.294;2023-02-15T08:22:00;100947.38;;;19.14;9.18
64698;BME280;51124;53.394;-6.294;2023-02-15T08:24:31;100951.35;;;19.12;9.18
64698;BME280;51124;53.394;-6.294;2023-02-15T08:26:58;100955.40;;;18.53;9.04
64698;BME280;51124;53.394;-6.294;2023-02-15T08:29:27;100951.91;;;18.57;9.16
64698;BME280;51124;53.394;-6.294;2023-02-15T08:31:56;100957.78;;;19.01;9.00
64698;BME280;51124;53.394;-6.294;2023-02-15T08:34:24;100959.30;;;18.69;9.18
64698;BME280;51124;53.394;-6.294;2023-02-15T08:36:51;100962.43;;;18.36;9.20
64698;BME280;51124;53.394;-6.294;2023-02-15T08:39:19;100960.07;;;18.52;9.25
64698;BME280;51124;53.394;-6.294;2023-02-15T08:41:48;100958.73;;;18.77;8.84
64698;BME280;51124;53.394;-6.294;2023-02-15T08:44:18;100955.64;;;19.11;8.93
64698;BME280;51124;53.394;-6.294;2023-02-15T08:46:47;100956.87;;;18.29;9.00
64698;BME280;51124;53.394;-6.294;2023-02-15T08:49:16;100957.07;;;18.15;8.81
64698;BME280;51124;53.394;-6.294;2023-02-15T08:51:44;100960.24;;;18.94;8.77
64698;BME280;51124;53.394;-6.294;2023-02-15T08:54:15;100957.81;;;19.00;8.83
64698;BME280;51124;53.394;-6.294;2023-02-15T08:56:43;100956.96;;;19.50;8.77
64698;BME280;51124;53.394;-6.294;2023-02-15T08:59:16;100967.22;;;19.10;8.62
64698;BME280;51124;53.394;-6.294;2023-02-15T09:01:44;100965.63;;;21.23;8.99
64698;BME280;51124;53.394;-6.294;2023-02-15T09:04:14;100970.57;;;20.89;9.37
64698;BME280;51124;53.394;-6.294;2023-02-15T09:06:43;100971.32;;;17.73;10.03
64698;BME280;51124;53.394;-6.294;2023-02-15T09:09:11;100971.03;;;19.48;9.59
64698;BME280;51124;53.394;-6.294;2023-02-15T09:11:41;100981.00;;;20.34;9.35
64698;BME280;51124;53.394;-6.294;2023-02-15T09:14:10;100987.14;;;19.68;9.36
64698;BME280;51124;53.394;-6.294;2023-02-15T09:16:39;100988.41;;;19.51;9.51
64698;BME280;51124;53.394;-6.294;2023-02-15T09:19:08;100990.00;;;19.94;9.29
64698;BME280;51124;53.394;-6.294;2023-02-15T09:21:36;100984.86;;;19.79;9.21
64698;BME280;51124;53.394;-6.294;2023-02-15T09:24:06;100988.02;;;20.15;9.16
64698;BME280;51124;53.394;-6.294;2023-02-15T09:26:37;100991.14;;;19.77;9.02
64698;BME280;51124;53.394;-6.294;2023-02-15T09:29:05;100981.94;;;19.29;8.74
64698;BME280;51124;53.394;-6.294;2023-02-15T09:31:38;100988.44;;;19.84;8.52
64698;BME280;51124;53.394;-6.294;2023-02-15T09:34:05;100988.40;;;19.35;8.46
64698;BME280;51124;53.394;-6.294;2023-02-15T09:36:35;100988.35;;;19.97;8.42
64698;BME280;51124;53.394;-6.294;2023-02-15T09:39:07;100991.09;;;19.57;8.51
64698;BME280;51124;53.394;-6.294;2023-02-15T09:42:04;100988.74;;;20.47;8.40
64698;BME280;51124;53.394;-6.294;2023-02-15T09:44:10;100987.37;;;19.23;8.52
64698;BME280;51124;53.394;-6.294;2023-02-15T09:46:40;100989.12;;;20.22;8.45
64698;BME280;51124;53.394;-6.294;2023-02-15T09:49:08;100990.23;;;19.25;8.51
64698;BME280;51124;53.394;-6.294;2023-02-15T09:51:39;100987.63;;;19.31;8.53
64698;BME280;51124;53.394;-6.294;2023-02-15T09:54:12;100987.98;;;18.67;8.88
64698;BME280;51124;53.394;-6.294;2023-02-15T09:56:36;100993.67;;;19.30;8.58
64698;BME280;51124;53.394;-6.294;2023-02-15T09:59:15;101001.76;;;19.41;8.38
64698;BME280;51124;53.394;-6.294;2023-02-15T10:01:40;101004.72;;;19.91;8.36
64698;BME280;51124;53.394;-6.294;2023-02-15T10:04:12;101003.27;;;22.57;8.54
64698;BME280;51124;53.394;-6.294;2023-02-15T10:06:35;101008.62;;;19.36;8.69
64698;BME280;51124;53.394;-6.294;2023-02-15T10:09:14;101007.62;;;19.01;8.51
64698;BME280;51124;53.394;-6.294;2023-02-15T10:11:51;101010.48;;;19.50;8.43
64698;BME280;51124;53.394;-6.294;2023-02-15T10:14:24;101013.33;;;19.14;8.40
64698;BME280;51124;53.394;-6.294;2023-02-15T10:16:51;101018.09;;;19.37;8.42
64698;BME280;51124;53.394;-6.294;2023-02-15T10:19:16;101021.64;;;20.47;8.29
64698;BME280;51124;53.394;-6.294;2023-02-15T10:21:48;101034.03;;;19.50;8.21
64698;BME280;51124;53.394;-6.294;2023-02-15T10:24:23;101025.37;;;19.62;8.32
64698;BME280;51124;53.394;-6.294;2023-02-15T10:26:45;101022.09;;;20.41;8.30
64698;BME280;51124;53.394;-6.294;2023-02-15T10:29:23;101021.88;;;20.36;8.34
64698;BME280;51124;53.394;-6.294;2023-02-15T10:31:50;101019.64;;;19.55;8.33
64698;BME280;51124;53.394;-6.294;2023-02-15T10:34:20;101027.08;;;20.39;8.36
64698;BME280;51124;53.394;-6.294;2023-02-15T10:37:07;101027.89;;;19.72;8.54
64698;BME280;51124;53.394;-6.294;2023-02-15T10:39:22;101021.64;;;20.37;8.50
64698;BME280;51124;53.394;-6.294;2023-02-15T10:41:47;101018.07;;;19.91;8.47
64698;BME280;51124;53.394;-6.294;2023-02-15T10:44:20;101019.72;;;20.71;8.37
64698;BME280;51124;53.394;-6.294;2023-02-15T10:46:55;101014.27;;;19.46;8.38
64698;BME280;51124;53.394;-6.294;2023-02-15T10:49:22;101013.61;;;19.82;8.29
64698;BME280;51124;53.394;-6.294;2023-02-15T10:51:40;101013.02;;;20.20;8.35
64698;BME280;51124;53.394;-6.294;2023-02-15T10:54:11;101011.80;;;20.63;8.33
64698;BME280;51124;53.394;-6.294;2023-02-15T10:56:36;101012.11;;;19.48;8.46
64698;BME280;51124;53.394;-6.294;2023-02-15T10:59:19;101009.22;;;19.41;8.21
64698;BME280;51124;53.394;-6.294;2023-02-15T11:01:44;101009.85;;;19.74;8.17
64698;BME280;51124;53.394;-6.294;2023-02-15T11:04:36;101017.72;;;20.92;8.10
64698;BME280;51124;53.394;-6.294;2023-02-15T11:06:50;101022.72;;;19.81;8.21
64698;BME280;51124;53.394;-6.294;2023-02-15T11:09:21;101023.76;;;22.83;8.41
64698;BME280;51124;53.394;-6.294;2023-02-15T11:11:52;101027.02;;;22.72;8.89
64698;BME280;51124;53.394;-6.294;2023-02-15T11:14:27;101024.73;;;21.63;9.24
64698;BME280;51124;53.394;-6.294;2023-02-15T11:16:51;101031.07;;;21.20;9.17
64698;BME280;51124;53.394;-6.294;2023-02-15T11:19:24;101025.28;;;23.71;8.97
64698;BME280;51124;53.394;-6.294;2023-02-15T11:21:58;101038.57;;;24.09;9.57
64698;BME280;51124;53.394;-6.294;2023-02-15T11:24:29;101036.94;;;22.96;10.01
64698;BME280;51124;53.394;-6.294;2023-02-15T11:27:00;101037.97;;;22.61;10.40
64698;BME280;51124;53.394;-6.294;2023-02-15T11:29:34;101039.73;;;22.98;10.40
64698;BME280;51124;53.394;-6.294;2023-02-15T11:32:14;101046.00;;;22.52;10.65
64698;BME280;51124;53.394;-6.294;2023-02-15T11:34:37;101043.58;;;21.93;10.80
64698;BME280;51124;53.394;-6.294;2023-02-15T11:37:10;101047.04;;;22.10;10.80
64698;BME280;51124;53.394;-6.294;2023-02-15T11:39:39;101045.75;;;21.92;10.93
64698;BME280;51124;53.394;-6.294;2023-02-15T11:42:13;101044.27;;;21.92;10.92
64698;BME280;51124;53.394;-6.294;2023-02-15T11:44:46;101049.84;;;22.04;10.82
64698;BME280;51124;53.394;-6.294;2023-02-15T11:47:11;101050.38;;;22.59;10.75
64698;BME280;51124;53.394;-6.294;2023-02-15T11:49:40;101048.07;;;22.15;10.94
64698;BME280;51124;53.394;-6.294;2023-02-15T11:52:11;101053.36;;;22.52;10.90
64698;BME280;51124;53.394;-6.294;2023-02-15T11:54:44;101055.66;;;22.35;10.91
64698;BME280;51124;53.394;-6.294;2023-02-15T11:57:17;101064.62;;;22.26;10.92
64698;BME280;51124;53.394;-6.294;2023-02-15T11:59:51;101062.65;;;22.20;10.88
64698;BME280;51124;53.394;-6.294;2023-02-15T12:02:22;101061.99;;;22.52;10.98
64698;BME280;51124;53.394;-6.294;2023-02-15T12:04:54;101067.61;;;21.78;11.05
64698;BME280;51124;53.394;-6.294;2023-02-15T12:07:27;101072.47;;;22.39;10.93
64698;BME280;51124;53.394;-6.294;2023-02-15T12:10:02;101069.61;;;21.25;10.99
64698;BME280;51124;53.394;-6.294;2023-02-15T12:12:33;101073.35;;;20.11;10.59
64698;BME280;51124;53.394;-6.294;2023-02-15T12:15:02;101066.72;;;20.22;10.21
64698;BME280;51124;53.394;-6.294;2023-02-15T12:17:32;101066.29;;;20.29;9.75
64698;BME280;51124;53.394;-6.294;2023-02-15T12:20:04;101054.02;;;20.16;9.63
64698;BME280;51124;53.394;-6.294;2023-02-15T12:22:35;101054.85;;;19.92;9.51
64698;BME280;51124;53.394;-6.294;2023-02-15T12:25:19;101055.17;;;18.95;9.60
64698;BME280;51124;53.394;-6.294;2023-02-15T12:27:37;101054.87;;;19.24;9.48
64698;BME280;51124;53.394;-6.294;2023-02-15T12:30:28;101053.26;;;19.50;9.16
64698;BME280;51124;53.394;-6.294;2023-02-15T12:35:13;101055.29;;;20.10;8.96
64698;BME280;51124;53.394;-6.294;2023-02-15T12:37:33;101057.71;;;19.60;9.12
64698;BME280;51124;53.394;-6.294;2023-02-15T12:40:04;101054.94;;;19.91;8.83
64698;BME280;51124;53.394;-6.294;2023-02-15T12:42:44;101053.03;;;19.83;8.64
64698;BME280;51124;53.394;-6.294;2023-02-15T12:45:04;101052.38;;;20.46;8.35
64698;BME280;51124;53.394;-6.294;2023-02-15T12:47:36;101054.19;;;20.45;8.19
64698;BME280;51124;53.394;-6.294;2023-02-15T12:50:10;101052.37;;;21.53;7.85
64698;BME280;51124;53.394;-6.294;2023-02-15T12:52:39;101050.02;;;21.28;7.68
64698;BME280;51124;53.394;-6.294;2023-02-15T12:55:22;101052.17;;;21.54;7.70
64698;BME280;51124;53.394;-6.294;2023-02-15T12:57:39;101038.15;;;21.64;7.56
64698;BME280;51124;53.394;-6.294;2023-02-15T13:00:26;101033.20;;;21.63;7.54